createdAt,value
2023-03-10T00:02:11.185Z,9.80
2023-03-10T00:07:04.007Z,9.30
2023-03-10T00:11:56.989Z,7.90
2023-03-10T00:16:49.815Z,6.30
2023-03-10T00:21:42.626Z,9.30
2023-03-10T00:26:36.014Z,11.10
2023-03-10T00:31:31.378Z,8.80
2023-03-10T00:36:29.667Z,7.20
2023-03-10T00:41:27.984Z,7.60
2023-03-10T00:46:21.674Z,9.90
2023-03-10T00:51:14.568Z,8.50
2023-03-10T00:56:11.428Z,10.90
2023-03-10T01:01:08.182Z,10.40
2023-03-10T01:06:02.419Z,8.60
2023-03-10T01:10:55.709Z,6.50
2023-03-10T01:15:49.023Z,6.10
2023-03-10T01:20:42.789Z,6.60
2023-03-10T01:25:37.670Z,9.80
2023-03-10T01:30:30.555Z,10.30
2023-03-10T01:35:23.331Z,8.80
2023-03-10T01:40:19.947Z,9.20
2023-03-10T01:45:15.534Z,13.80
2023-03-10T01:50:13.937Z,9.80
2023-03-10T01:55:10.392Z,10.60
2023-03-10T02:00:09.264Z,12.50
2023-03-10T02:05:09.378Z,11.40
2023-03-10T02:10:05.759Z,10.70
2023-03-10T02:14:59.522Z,10.30
2023-03-10T02:19:58.578Z,14.30
2023-03-10T02:24:59.098Z,14.30
2023-03-10T02:30:18.978Z,12.30
2023-03-10T02:35:13.306Z,15.00
2023-03-10T02:40:29.910Z,15.00
2023-03-10T02:45:23.841Z,12.30
2023-03-10T02:50:19.264Z,12.90
2023-03-10T02:55:19.668Z,14.00
2023-03-10T03:00:13.984Z,13.60
2023-03-10T03:05:09.175Z,12.90
2023-03-10T03:10:02.153Z,16.00
2023-03-10T03:14:55.597Z,16.40
2023-03-10T03:19:52.124Z,14.70
2023-03-10T03:24:47.436Z,15.50
2023-03-10T03:29:42.758Z,13.40
2023-03-10T03:34:36.486Z,13.20
2023-03-10T03:39:32.005Z,12.20
2023-03-10T03:44:27.007Z,15.20
2023-03-10T03:49:21.294Z,13.00
2023-03-10T03:54:14.778Z,15.20
2023-03-10T03:59:08.414Z,16.80
2023-03-10T04:04:01.899Z,14.20
2023-03-10T04:08:55.108Z,13.80
2023-03-10T04:13:49.181Z,15.10
2023-03-10T04:18:42.913Z,13.10
2023-03-10T04:23:37.512Z,12.40
2023-03-10T04:28:32.612Z,14.30
2023-03-10T04:33:25.761Z,16.30
2023-03-10T04:38:19.309Z,13.80
2023-03-10T04:43:12.758Z,14.80
2023-03-10T04:48:06.031Z,14.70
2023-03-10T04:53:02.147Z,15.50
2023-03-10T04:57:56.211Z,15.60
2023-03-10T05:02:49.375Z,15.70
2023-03-10T05:07:43.054Z,14.30
2023-03-10T05:12:36.209Z,18.10
2023-03-10T05:17:31.495Z,15.30
2023-03-10T05:22:27.909Z,14.60
2023-03-10T05:27:22.121Z,18.80
2023-03-10T05:32:15.590Z,14.10
2023-03-10T05:37:09.914Z,18.90
2023-03-10T05:42:03.243Z,15.70
2023-03-10T05:46:58.436Z,19.30
2023-03-10T05:51:53.466Z,15.30
2023-03-10T05:56:50.557Z,23.20
2023-03-10T06:01:54.492Z,19.20
2023-03-10T06:06:47.293Z,18.80
2023-03-10T06:11:40.174Z,19.80
2023-03-10T06:16:35.156Z,21.70
2023-03-10T06:21:29.649Z,16.90
2023-03-10T06:26:24.785Z,21.20
2023-03-10T06:31:21.340Z,20.60
2023-03-10T06:36:15.713Z,19.00
2023-03-10T06:41:09.011Z,20.00
2023-03-10T06:46:05.930Z,21.60
2023-03-10T06:50:59.184Z,13.70
2023-03-10T06:56:09.401Z,19.70
2023-03-10T07:01:02.298Z,17.00
2023-03-10T07:05:55.905Z,22.50
2023-03-10T07:10:50.609Z,21.80
2023-03-10T07:15:45.878Z,17.90
2023-03-10T07:20:41.909Z,20.20
2023-03-10T07:25:38.343Z,19.90
2023-03-10T07:30:31.318Z,20.90
2023-03-10T07:35:24.161Z,16.60
2023-03-10T07:40:17.543Z,21.80
2023-03-10T07:45:10.961Z,24.80
2023-03-10T07:50:03.978Z,22.10
2023-03-10T07:54:56.909Z,23.20
2023-03-10T07:59:49.806Z,26.80
2023-03-10T08:04:43.234Z,24.90
2023-03-10T08:09:36.940Z,25.90
2023-03-10T08:14:31.612Z,22.60
2023-03-10T08:19:25.774Z,22.80
2023-03-10T08:24:18.647Z,28.10
2023-03-10T08:29:11.463Z,31.20
2023-03-10T08:34:04.263Z,29.50
2023-03-10T08:38:59.222Z,28.40
2023-03-10T08:43:53.887Z,31.90
2023-03-10T08:48:47.404Z,30.30
2023-03-10T08:53:40.699Z,30.40
2023-03-10T08:58:34.337Z,33.00
2023-03-10T09:03:30.308Z,30.50
2023-03-10T09:08:27.018Z,37.20
2023-03-10T09:13:23.350Z,28.80
2023-03-10T09:18:17.190Z,33.40
2023-03-10T09:23:12.099Z,35.10
2023-03-10T09:28:05.555Z,33.30
2023-03-10T09:32:58.504Z,32.70
2023-03-10T09:37:51.504Z,34.90
2023-03-10T09:42:49.228Z,37.20
2023-03-10T09:48:26.311Z,35.10
2023-03-10T09:54:04.551Z,36.10
2023-03-10T09:59:11.294Z,33.50
2023-03-10T10:04:10.196Z,30.60
2023-03-10T10:09:13.981Z,31.40
2023-03-10T10:14:28.523Z,40.80
2023-03-10T10:19:25.324Z,34.50
2023-03-10T10:24:19.798Z,32.50
2023-03-10T10:29:18.300Z,29.70
2023-03-10T10:34:24.044Z,36.00
2023-03-10T10:39:41.525Z,30.60
2023-03-10T10:44:42.414Z,31.90
2023-03-10T10:49:41.209Z,31.00
2023-03-10T10:54:40.414Z,30.50
2023-03-10T10:59:35.989Z,31.40
2023-03-10T11:04:42.783Z,29.20
2023-03-10T11:09:36.698Z,31.40
2023-03-10T11:14:49.555Z,32.20
2023-03-10T11:19:58.275Z,29.00
2023-03-10T11:25:14.358Z,30.10
2023-03-10T11:30:16.393Z,33.30
2023-03-10T11:35:30.324Z,28.20
2023-03-10T11:40:38.538Z,33.50
2023-03-10T11:45:37.106Z,28.30
2023-03-10T11:50:40.574Z,27.60
2023-03-10T11:55:34.148Z,26.10
2023-03-10T12:00:40.847Z,25.40
2023-03-10T12:05:45.372Z,26.00
2023-03-10T12:10:42.045Z,25.10
2023-03-10T12:15:39.959Z,26.10
2023-03-10T12:20:34.559Z,24.50
2023-03-10T12:25:30.414Z,25.20
2023-03-10T12:30:56.558Z,25.50
2023-03-10T12:35:55.340Z,20.40
2023-03-10T12:40:49.756Z,17.80
2023-03-10T12:45:47.501Z,16.90
2023-03-10T12:50:57.034Z,18.40
2023-03-10T12:56:21.262Z,18.80
2023-03-10T13:01:18.561Z,16.20
2023-03-10T13:06:13.582Z,18.60
2023-03-10T13:11:14.857Z,17.40
2023-03-10T13:16:09.614Z,16.90
2023-03-10T13:21:02.954Z,15.00
2023-03-10T13:26:01.430Z,16.80
2023-03-10T13:31:10.534Z,14.00
2023-03-10T13:36:21.090Z,17.20
2023-03-10T13:41:14.070Z,15.80
2023-03-10T13:46:29.125Z,15.60
2023-03-10T13:51:32.109Z,17.90
2023-03-10T13:56:40.260Z,14.40
2023-03-10T14:06:30.103Z,14.50
2023-03-10T14:11:47.112Z,14.50
2023-03-10T14:16:54.528Z,13.80
2023-03-10T14:22:00.316Z,16.00
2023-03-10T14:26:56.393Z,14.40
2023-03-10T14:31:52.810Z,15.90
2023-03-10T14:36:45.683Z,15.30
2023-03-10T14:41:39.174Z,12.40
2023-03-10T14:46:35.340Z,13.00
2023-03-10T14:51:35.535Z,13.10
2023-03-10T14:56:29.492Z,17.30
2023-03-10T15:01:23.311Z,12.80
2023-03-10T15:06:19.202Z,13.90
2023-03-10T15:11:13.838Z,14.40
2023-03-10T15:16:08.287Z,17.00
2023-03-10T15:21:02.627Z,11.40
2023-03-10T15:25:57.015Z,12.10
2023-03-10T15:30:50.191Z,12.90
2023-03-10T15:35:43.230Z,14.30
2023-03-10T15:40:36.860Z,12.30
2023-03-10T15:45:32.111Z,15.20
2023-03-10T15:50:25.346Z,13.80
2023-03-10T15:55:18.901Z,14.90
2023-03-10T16:00:13.779Z,18.50
2023-03-10T16:05:07.664Z,13.70
2023-03-10T16:10:00.690Z,12.00
2023-03-10T16:14:55.381Z,13.20
2023-03-10T16:19:48.523Z,11.70
2023-03-10T16:24:41.360Z,12.10
2023-03-10T16:29:34.920Z,11.00
2023-03-10T16:34:27.876Z,12.20
2023-03-10T16:39:20.681Z,14.50
2023-03-10T16:44:15.641Z,12.50
2023-03-10T16:49:08.788Z,10.30
2023-03-10T16:54:04.105Z,10.00
2023-03-10T16:58:58.004Z,10.00
2023-03-10T17:03:52.196Z,9.50
2023-03-10T17:08:45.557Z,11.40
2023-03-10T17:13:38.856Z,9.50
2023-03-10T17:18:31.996Z,11.20
2023-03-10T17:23:24.816Z,11.10
2023-03-10T17:28:17.605Z,12.00
2023-03-10T17:33:10.637Z,12.00
2023-03-10T17:38:03.831Z,9.50
2023-03-10T17:42:56.699Z,10.60
2023-03-10T17:47:50.665Z,10.70
2023-03-10T17:52:43.554Z,9.10
2023-03-10T17:57:36.341Z,8.20
2023-03-10T18:02:29.187Z,9.90
2023-03-10T18:07:22.183Z,12.80
2023-03-10T18:12:14.974Z,10.80
2023-03-10T18:17:07.781Z,9.30
2023-03-10T18:22:01.027Z,8.70
2023-03-10T18:26:53.833Z,10.60
2023-03-10T18:31:46.610Z,13.00
2023-03-10T18:36:39.429Z,14.90
2023-03-10T18:41:32.904Z,13.30
2023-03-10T18:46:25.886Z,11.60
2023-03-10T18:51:18.683Z,16.70
2023-03-10T18:56:11.524Z,11.10
2023-03-10T19:01:04.426Z,15.90
2023-03-10T19:05:57.661Z,18.90
2023-03-10T19:10:58.438Z,16.50
2023-03-10T19:15:51.659Z,13.10
2023-03-10T19:20:46.242Z,22.20
2023-03-10T19:25:39.242Z,17.50
2023-03-10T19:30:32.819Z,15.90
2023-03-10T19:35:25.736Z,17.20
2023-03-10T19:40:20.805Z,15.60
2023-03-10T19:45:19.167Z,17.00
2023-03-10T19:50:18.187Z,15.30
2023-03-10T19:55:16.424Z,16.80
2023-03-10T20:00:13.882Z,13.50
2023-03-10T20:10:00.857Z,15.40
2023-03-10T20:14:58.744Z,17.10
2023-03-10T20:20:20.185Z,18.70
2023-03-10T20:25:19.882Z,22.60
2023-03-10T20:30:19.606Z,20.70
2023-03-10T20:35:14.698Z,17.00
2023-03-10T20:40:08.591Z,14.80
2023-03-10T20:45:02.653Z,18.80
2023-03-10T20:49:56.460Z,25.00
2023-03-10T20:54:49.373Z,24.20
2023-03-10T20:59:42.216Z,27.90
2023-03-10T21:04:35.073Z,22.00
2023-03-10T21:09:28.023Z,23.40
2023-03-10T21:14:20.804Z,25.90
2023-03-10T21:19:13.949Z,28.60
2023-03-10T21:24:07.067Z,24.80
2023-03-10T21:29:00.597Z,28.40
2023-03-10T21:33:53.514Z,29.40
2023-03-10T21:38:48.828Z,27.70
2023-03-10T21:43:42.517Z,30.40
2023-03-10T21:48:35.858Z,35.80
2023-03-10T21:53:29.909Z,36.60
2023-03-10T21:58:25.175Z,33.30
2023-03-10T22:03:18.409Z,32.30
2023-03-10T22:08:11.361Z,28.70
2023-03-10T22:13:04.510Z,33.90
2023-03-10T22:17:57.352Z,33.00
2023-03-10T22:22:50.526Z,34.70
2023-03-10T22:27:45.054Z,31.60
2023-03-10T22:32:38.197Z,32.00
2023-03-10T22:37:31.127Z,32.90
2023-03-10T22:42:23.913Z,26.30
2023-03-10T22:47:18.452Z,36.00
2023-03-10T22:52:11.731Z,29.70
2023-03-10T22:57:04.864Z,28.50
2023-03-10T23:01:57.779Z,31.30
2023-03-10T23:06:51.581Z,24.10
2023-03-10T23:11:45.516Z,26.80
2023-03-10T23:16:38.541Z,30.30
2023-03-10T23:21:31.525Z,28.90
2023-03-10T23:26:24.316Z,28.00
2023-03-10T23:31:17.343Z,28.60
2023-03-10T23:36:11.834Z,27.00
2023-03-10T23:41:05.313Z,24.90
2023-03-10T23:45:58.508Z,26.70
2023-03-10T23:50:52.128Z,27.50
2023-03-10T23:55:47.809Z,28.30
